CW3398 Weather Reports


Display with metric or nautical units.
time (UTC)temp
F
wind
direction
speed
MPH
gust
MPH
rain 1hr
in
rain 24hr
in
rain mn
in
humidity
%
barometer
mb
20210806040148 72 120 2.0 4.0 0.00 0.01 0.01 69 1016.1
20210806034801 73 155 1.0 6.0 0.00 0.01 0.01 69 1016.0
20210806033038 73 134 2.0 6.0 0.00 0.01 0.01 69 1015.8
20210806031555 73 131 2.0 10.0 0.00 0.01 0.01 66 1015.7
20210806030240 74 129 0.0 1.0 0.00 0.01 0.01 63 1015.5
20210806024520 74 134 0.0 3.0 0.00 0.01 0.01 62 1015.4
20210806023108 75 136 1.0 3.0 0.00 0.01 0.01 61 1015.3
20210806021754 76 82 2.0 5.0 0.00 0.01 0.01 60 1015.2
20210806020012 76 140 2.0 6.0 0.00 0.01 0.01 59 1015.3
20210806014557 77 105 0.0 2.0 0.00 0.01 0.01 58 1015.4
20210806013144 77 124 0.0 3.0 0.00 0.01 0.01 56 1015.1
20210806011507 79 108 1.0 6.0 0.00 0.01 0.01 52 1014.9
20210806010020 80 108 1.0 4.0 0.00 0.01 0.01 50 1014.8
20210806004555 81 150 3.0 8.0 0.00 0.01 0.01 49 1014.5
20210806001610 81 185 3.0 10.0 0.00 0.01 0.01 49 1014.2
20210806000111 82 158 5.0 11.0 0.00 0.01 0.01 49 1014.1
20210805234638 83 172 4.0 8.0 0.00 0.01 0.01 47 1014.1
20210805233010 84 153 1.0 5.0 0.00 0.01 0.01 46 1014.1
20210805231536 83 153 4.0 10.0 0.00 0.01 0.01 45 1014.2
20210805230135 84 221 4.0 8.0 0.00 0.01 0.01 44 1014.2
20210805224713 83 254 1.0 6.0 0.00 0.01 0.01 45 1014.2
20210805223032 83 198 2.0 7.0 0.00 0.01 0.01 50 1014.1
20210805221522 82 212 2.0 4.0 0.00 0.01 0.01 50 1014.1
20210805220124 82 347 1.0 5.0 0.00 0.01 0.01 50 1014.2
20210805214618 83 95 4.0 9.0 0.00 0.01 0.01 49 1014.4
20210805213024 82 110 1.0 4.0 0.00 0.01 0.01 53 1014.6
20210805211626 82 49 2.0 6.0 0.00 0.01 0.01 56 1014.7
20210805210258 80 110 4.0 8.0 0.00 0.01 0.01 57 1014.8
20210805204613 78 161 3.0 8.0 0.00 0.01 0.01 63 1015.1
20210805203037 79 157 3.0 10.0 0.00 0.01 0.01 66 1015.2
20210805201606 78 148 4.0 11.0 0.00 0.01 0.01 66 1015.2
20210805200237 77 206 4.0 8.0 0.00 0.01 0.01 68 1015.3
20210805194503 76 129 4.0 8.0 0.00 0.01 0.01 68 1015.5
20210805193025 75 163 4.0 7.0 0.00 0.01 0.01 70 1015.8
20210805191631 75 186 2.0 6.0 0.00 0.01 0.01 70 1015.9
20210805190249 74 126 2.0 5.0 0.00 0.01 0.01 71 1016.1
20210805184509 74 103 3.0 6.0 0.01 0.01 0.01 71 1016.4
20210805183200 74 157 1.0 4.0 0.01 0.01 0.01 72 1016.9
20210805181622 73 154 2.0 4.0 0.01 0.01 0.01 73 1017.2
20210805174522 73 196 3.0 6.0 0.00 0.00 0.00 73 1017.6
20210805173114 74 133 3.0 7.0 0.00 0.00 0.00 72 1017.7
20210805171651 74 128 3.0 8.0 0.00 0.00 0.00 71 1017.6
20210805170006 74 140 2.0 7.0 0.00 0.00 0.00 70 1017.6
20210805164634 75 140 4.0 7.0 0.00 0.00 0.00 70 1017.5
20210805163122 75 141 3.0 6.0 0.00 0.00 0.00 70 1017.3
20210805161506 75 141 4.0 8.0 0.00 0.00 0.00 69 1017.1
20210805160012 75 113 2.0 5.0 0.00 0.00 0.00 70 1017.1
20210805154558 75 134 4.0 7.0 0.00 0.00 0.00 70 1017.3
20210805153144 75 148 3.0 8.0 0.00 0.00 0.00 71 1017.1
20210805151600 75 75 3.0 6.0 0.00 0.00 0.00 71 1016.8
20210805150041 74 86 2.0 6.0 0.00 0.00 0.00 72 1016.7
20210805144556 73 155 2.0 7.0 0.00 0.00 0.00 73 1016.6
20210805141519 73 97 2.0 5.0 0.00 0.00 0.00 81 1016.6
20210805140107 72 94 2.0 5.0 0.00 0.00 0.00 82 1016.6
20210805134644 72 120 1.0 5.0 0.00 0.00 0.00 82 1016.7
20210805133014 72 143 3.0 5.0 0.00 0.00 0.00 82 1016.5
20210805131533 72 113 2.0 4.0 0.00 0.00 0.00 82 1016.3
20210805130217 71 180 1.0 4.0 0.00 0.00 0.00 82 1016.2
20210805124515 71 152 1.0 4.0 0.00 0.00 0.00 82 1016.0
20210805123152 71 162 2.0 5.0 0.00 0.00 0.00 82 1016.0
20210805121544 71 144 1.0 5.0 0.00 0.00 0.00 82 1015.9
20210805120256 71 104 2.0 4.0 0.00 0.00 0.00 82 1015.5
20210805114509 70 136 1.0 3.0 0.00 0.00 0.00 81 1015.2
20210805113023 71 134 1.0 4.0 0.00 0.00 0.00 80 1015.0
20210805111553 71 136 1.0 5.0 0.00 0.00 0.00 80 1015.1
20210805110231 71 116 1.0 7.0 0.00 0.00 0.00 80 1015.0
20210805104540 70 104 1.0 4.0 0.00 0.00 0.00 79 1014.8
20210805103037 70 105 1.0 3.0 0.00 0.00 0.00 77 1014.6
20210805101626 70 96 0.0 3.0 0.00 0.00 0.00 75 1014.7
20210805094547 71 113 2.0 5.0 0.00 0.00 0.00 73 1014.9
20210805093203 71 162 1.0 5.0 0.00 0.00 0.00 73 1015.0
20210805091625 70 139 2.0 5.0 0.00 0.00 0.00 73 1015.1
20210805090009 70 149 1.0 3.0 0.00 0.00 0.00 72 1014.9
20210805084600 70 91 0.0 5.0 0.00 0.00 0.00 70 1014.8
20210805083138 70 73 2.0 3.0 0.00 0.00 0.00 70 1014.9
20210805081717 70 80 1.0 3.0 0.00 0.00 0.00 70 1015.0
20210805081503 70 79 2.0 3.0 0.00 0.00 0.00 70 1015.0
20210805080054 71 95 1.0 3.0 0.00 0.00 0.00 70 1015.0
20210805074623 71 69 1.0 2.0 0.00 0.00 0.00 69 1015.0
20210805071530 71 97 0.0 2.0 0.00 0.00 0.00 69 1015.2
20210805070057 72 93 1.0 4.0 0.00 0.00 0.00 70 1015.2
20210805064547 72 128 1.0 4.0 0.00 0.00 0.00 69 1015.4
20210805061549 73 93 2.0 6.0 0.00 0.00 0.00 67 1015.7
20210805060123 73 127 3.0 7.0 0.00 0.00 0.00 67 1015.8
20210805054657 73 150 3.0 6.0 0.00 0.00 0.00 66 1015.7
20210805053005 74 79 3.0 7.0 0.00 0.00 0.00 65 1015.8
20210805051606 74 77 2.0 7.0 0.00 0.00 0.00 64 1015.8
20210805050223 74 106 2.0 6.0 0.00 0.00 0.00 63 1015.8
20210805044630 74 89 2.0 6.0 0.00 0.00 0.00 61 1015.7
20210805043001 74 86 2.0 5.0 0.00 0.00 0.00 58 1015.7
20210805041526 75 113 3.0 5.0 0.00 0.00 0.00 54 1015.5